sensor_id;sensor_type;location;lat;lon;timestamp;P1;durP1;ratioP1;P2;durP2;ratioP2
3259;SDS011;22469;48.150;14.004;2023-03-01T00:01:38;22.20;;;17.30;;
3259;SDS011;22469;48.150;14.004;2023-03-01T00:04:06;26.10;;;17.30;;
3259;SDS011;22469;48.150;14.004;2023-03-01T00:06:33;23.03;;;16.07;;
3259;SDS011;22469;48.150;14.004;2023-03-01T00:09:00;23.70;;;17.10;;
3259;SDS011;22469;48.150;14.004;2023-03-01T00:11:28;21.20;;;17.00;;
3259;SDS011;22469;48.150;14.004;2023-03-01T00:13:59;23.17;;;18.10;;
3259;SDS011;22469;48.150;14.004;2023-03-01T00:16:33;23.97;;;17.80;;
3259;SDS011;22469;48.150;14.004;2023-03-01T00:19:05;22.23;;;16.40;;
3259;SDS011;22469;48.150;14.004;2023-03-01T00:21:38;20.57;;;16.50;;
3259;SDS011;22469;48.150;14.004;2023-03-01T00:24:06;26.03;;;18.03;;
3259;SDS011;22469;48.150;14.004;2023-03-01T00:26:34;24.57;;;17.20;;
3259;SDS011;22469;48.150;14.004;2023-03-01T00:29:01;22.63;;;16.23;;
3259;SDS011;22469;48.150;14.004;2023-03-01T00:31:30;26.20;;;17.70;;
3259;SDS011;22469;48.150;14.004;2023-03-01T00:33:59;24.20;;;17.10;;
3259;SDS011;22469;48.150;14.004;2023-03-01T00:36:33;24.33;;;18.10;;
3259;SDS011;22469;48.150;14.004;2023-03-01T00:39:04;23.10;;;17.23;;
3259;SDS011;22469;48.150;14.004;2023-03-01T00:41:34;24.93;;;17.63;;
3259;SDS011;22469;48.150;14.004;2023-03-01T00:44:01;24.87;;;18.70;;
3259;SDS011;22469;48.150;14.004;2023-03-01T00:46:29;26.00;;;18.30;;
3259;SDS011;22469;48.150;14.004;2023-03-01T00:48:57;21.90;;;16.33;;
3259;SDS011;22469;48.150;14.004;2023-03-01T00:51:25;26.37;;;16.90;;
3259;SDS011;22469;48.150;14.004;2023-03-01T00:53:54;26.53;;;16.23;;
3259;SDS011;22469;48.150;14.004;2023-03-01T00:56:25;21.97;;;16.57;;
3259;SDS011;22469;48.150;14.004;2023-03-01T00:58:53;24.87;;;16.93;;
3259;SDS011;22469;48.150;14.004;2023-03-01T01:01:25;22.97;;;16.57;;
3259;SDS011;22469;48.150;14.004;2023-03-01T01:04:00;23.80;;;15.30;;
3259;SDS011;22469;48.150;14.004;2023-03-01T01:06:34;24.63;;;15.73;;
3259;SDS011;22469;48.150;14.004;2023-03-01T01:09:07;26.57;;;16.50;;
3259;SDS011;22469;48.150;14.004;2023-03-01T01:11:47;27.23;;;17.97;;
3259;SDS011;22469;48.150;14.004;2023-03-01T01:14:17;22.50;;;15.83;;
3259;SDS011;22469;48.150;14.004;2023-03-01T01:16:46;23.77;;;17.60;;
3259;SDS011;22469;48.150;14.004;2023-03-01T01:19:13;25.17;;;17.60;;
3259;SDS011;22469;48.150;14.004;2023-03-01T01:21:41;24.30;;;16.23;;
3259;SDS011;22469;48.150;14.004;2023-03-01T01:24:09;22.77;;;17.40;;
3259;SDS011;22469;48.150;14.004;2023-03-01T01:26:37;20.70;;;17.63;;
3259;SDS011;22469;48.150;14.004;2023-03-01T01:29:05;23.43;;;16.20;;
3259;SDS011;22469;48.150;14.004;2023-03-01T01:31:33;27.00;;;16.60;;
3259;SDS011;22469;48.150;14.004;2023-03-01T01:34:03;22.17;;;16.30;;
3259;SDS011;22469;48.150;14.004;2023-03-01T01:36:33;26.27;;;18.80;;
3259;SDS011;22469;48.150;14.004;2023-03-01T01:39:01;27.03;;;17.97;;
3259;SDS011;22469;48.150;14.004;2023-03-01T01:41:29;21.73;;;14.90;;
3259;SDS011;22469;48.150;14.004;2023-03-01T01:44:10;22.60;;;16.60;;
3259;SDS011;22469;48.150;14.004;2023-03-01T01:46:48;31.13;;;16.60;;
3259;SDS011;22469;48.150;14.004;2023-03-01T01:52:27;27.73;;;18.13;;
3259;SDS011;22469;48.150;14.004;2023-03-01T01:57:58;22.20;;;16.30;;
3259;SDS011;22469;48.150;14.004;2023-03-01T02:00:30;22.10;;;15.47;;
3259;SDS011;22469;48.150;14.004;2023-03-01T02:03:31;27.67;;;17.60;;
3259;SDS011;22469;48.150;14.004;2023-03-01T02:06:01;27.13;;;18.87;;
3259;SDS011;22469;48.150;14.004;2023-03-01T02:08:38;27.77;;;18.30;;
3259;SDS011;22469;48.150;14.004;2023-03-01T02:11:08;26.40;;;18.37;;
3259;SDS011;22469;48.150;14.004;2023-03-01T02:13:37;27.47;;;17.57;;
3259;SDS011;22469;48.150;14.004;2023-03-01T02:16:05;25.63;;;18.87;;
3259;SDS011;22469;48.150;14.004;2023-03-01T02:18:37;21.53;;;16.50;;
3259;SDS011;22469;48.150;14.004;2023-03-01T02:21:08;26.00;;;18.00;;
3259;SDS011;22469;48.150;14.004;2023-03-01T02:23:59;30.63;;;19.47;;
3259;SDS011;22469;48.150;14.004;2023-03-01T02:27:19;31.40;;;17.67;;
3259;SDS011;22469;48.150;14.004;2023-03-01T02:29:54;28.27;;;20.03;;
3259;SDS011;22469;48.150;14.004;2023-03-01T02:32:23;28.20;;;19.60;;
3259;SDS011;22469;48.150;14.004;2023-03-01T02:34:52;27.37;;;18.50;;
3259;SDS011;22469;48.150;14.004;2023-03-01T02:37:22;28.13;;;19.70;;
3259;SDS011;22469;48.150;14.004;2023-03-01T02:39:59;21.33;;;15.80;;
3259;SDS011;22469;48.150;14.004;2023-03-01T02:42:35;27.90;;;18.73;;
3259;SDS011;22469;48.150;14.004;2023-03-01T02:45:14;25.00;;;18.17;;
3259;SDS011;22469;48.150;14.004;2023-03-01T02:47:41;25.77;;;17.80;;
3259;SDS011;22469;48.150;14.004;2023-03-01T02:55:43;28.40;;;21.00;;
3259;SDS011;22469;48.150;14.004;2023-03-01T02:58:10;30.30;;;18.13;;
3259;SDS011;22469;48.150;14.004;2023-03-01T03:00:38;25.10;;;18.70;;
3259;SDS011;22469;48.150;14.004;2023-03-01T03:03:13;26.40;;;19.40;;
3259;SDS011;22469;48.150;14.004;2023-03-01T03:05:43;25.77;;;17.77;;
3259;SDS011;22469;48.150;14.004;2023-03-01T03:08:10;28.23;;;18.40;;
3259;SDS011;22469;48.150;14.004;2023-03-01T03:10:39;29.57;;;20.17;;
3259;SDS011;22469;48.150;14.004;2023-03-01T03:13:10;31.23;;;21.00;;
3259;SDS011;22469;48.150;14.004;2023-03-01T03:15:41;32.17;;;18.77;;
3259;SDS011;22469;48.150;14.004;2023-03-01T03:18:11;27.27;;;18.60;;
3259;SDS011;22469;48.150;14.004;2023-03-01T03:20:43;28.37;;;19.50;;
3259;SDS011;22469;48.150;14.004;2023-03-01T03:23:11;28.77;;;17.70;;
3259;SDS011;22469;48.150;14.004;2023-03-01T03:25:38;31.33;;;19.20;;
3259;SDS011;22469;48.150;14.004;2023-03-01T03:28:06;30.90;;;20.90;;
3259;SDS011;22469;48.150;14.004;2023-03-01T03:30:38;28.90;;;20.10;;
3259;SDS011;22469;48.150;14.004;2023-03-01T03:33:07;26.47;;;18.30;;
3259;SDS011;22469;48.150;14.004;2023-03-01T03:35:40;34.93;;;20.73;;
3259;SDS011;22469;48.150;14.004;2023-03-01T03:38:10;29.55;;;20.95;;
3259;SDS011;22469;48.150;14.004;2023-03-01T03:40:47;30.37;;;19.30;;
3259;SDS011;22469;48.150;14.004;2023-03-01T03:43:30;23.63;;;17.50;;
3259;SDS011;22469;48.150;14.004;2023-03-01T03:45:59;29.70;;;18.97;;
3259;SDS011;22469;48.150;14.004;2023-03-01T03:48:27;34.30;;;20.30;;
3259;SDS011;22469;48.150;14.004;2023-03-01T03:50:55;36.17;;;21.37;;
3259;SDS011;22469;48.150;14.004;2023-03-01T03:53:23;32.20;;;21.87;;
3259;SDS011;22469;48.150;14.004;2023-03-01T03:55:52;34.03;;;20.77;;
3259;SDS011;22469;48.150;14.004;2023-03-01T03:58:21;34.93;;;20.17;;
3259;SDS011;22469;48.150;14.004;2023-03-01T04:00:54;33.10;;;22.67;;
3259;SDS011;22469;48.150;14.004;2023-03-01T04:03:24;30.00;;;19.80;;
3259;SDS011;22469;48.150;14.004;2023-03-01T04:05:54;34.67;;;22.73;;
3259;SDS011;22469;48.150;14.004;2023-03-01T04:08:23;34.47;;;21.63;;
3259;SDS011;22469;48.150;14.004;2023-03-01T04:10:51;36.60;;;21.77;;
3259;SDS011;22469;48.150;14.004;2023-03-01T04:13:24;30.27;;;20.50;;
3259;SDS011;22469;48.150;14.004;2023-03-01T04:15:52;32.53;;;21.67;;
3259;SDS011;22469;48.150;14.004;2023-03-01T04:18:22;32.67;;;20.97;;
3259;SDS011;22469;48.150;14.004;2023-03-01T04:20:52;34.37;;;20.70;;
3259;SDS011;22469;48.150;14.004;2023-03-01T04:23:22;34.10;;;20.07;;
3259;SDS011;22469;48.150;14.004;2023-03-01T04:28:22;33.27;;;20.53;;
3259;SDS011;22469;48.150;14.004;2023-03-01T04:31:02;33.37;;;21.63;;
3259;SDS011;22469;48.150;14.004;2023-03-01T04:33:41;37.87;;;22.67;;
3259;SDS011;22469;48.150;14.004;2023-03-01T04:36:18;34.43;;;22.20;;
3259;SDS011;22469;48.150;14.004;2023-03-01T04:38:49;28.43;;;20.37;;
3259;SDS011;22469;48.150;14.004;2023-03-01T04:41:17;33.60;;;21.80;;
3259;SDS011;22469;48.150;14.004;2023-03-01T04:43:47;38.83;;;26.27;;
3259;SDS011;22469;48.150;14.004;2023-03-01T04:46:16;32.47;;;20.37;;
3259;SDS011;22469;48.150;14.004;2023-03-01T04:48:46;36.30;;;21.60;;
3259;SDS011;22469;48.150;14.004;2023-03-01T04:51:14;36.80;;;22.77;;
3259;SDS011;22469;48.150;14.004;2023-03-01T04:53:42;41.63;;;24.13;;
3259;SDS011;22469;48.150;14.004;2023-03-01T04:56:10;42.10;;;23.87;;
3259;SDS011;22469;48.150;14.004;2023-03-01T04:58:40;34.20;;;22.60;;
3259;SDS011;22469;48.150;14.004;2023-03-01T05:01:14;36.70;;;24.27;;
3259;SDS011;22469;48.150;14.004;2023-03-01T05:03:45;39.37;;;23.80;;
3259;SDS011;22469;48.150;14.004;2023-03-01T05:06:15;38.90;;;22.73;;
3259;SDS011;22469;48.150;14.004;2023-03-01T05:08:44;33.37;;;22.17;;
3259;SDS011;22469;48.150;14.004;2023-03-01T05:11:12;36.87;;;23.27;;
3259;SDS011;22469;48.150;14.004;2023-03-01T05:13:39;40.17;;;23.80;;
3259;SDS011;22469;48.150;14.004;2023-03-01T05:16:07;40.50;;;25.23;;
3259;SDS011;22469;48.150;14.004;2023-03-01T05:18:39;30.53;;;21.50;;
3259;SDS011;22469;48.150;14.004;2023-03-01T05:21:08;41.60;;;25.30;;
3259;SDS011;22469;48.150;14.004;2023-03-01T05:23:42;38.50;;;24.63;;
3259;SDS011;22469;48.150;14.004;2023-03-01T05:26:10;37.30;;;24.67;;
3259;SDS011;22469;48.150;14.004;2023-03-01T05:28:59;34.97;;;21.43;;
3259;SDS011;22469;48.150;14.004;2023-03-01T05:31:27;42.20;;;24.80;;
3259;SDS011;22469;48.150;14.004;2023-03-01T05:33:54;44.20;;;24.50;;
3259;SDS011;22469;48.150;14.004;2023-03-01T05:36:21;38.00;;;23.70;;
3259;SDS011;22469;48.150;14.004;2023-03-01T05:38:48;57.30;;;27.27;;
3259;SDS011;22469;48.150;14.004;2023-03-01T05:41:15;33.87;;;22.93;;
3259;SDS011;22469;48.150;14.004;2023-03-01T05:43:43;40.43;;;25.40;;
3259;SDS011;22469;48.150;14.004;2023-03-01T05:46:11;41.93;;;25.03;;
3259;SDS011;22469;48.150;14.004;2023-03-01T05:48:40;42.20;;;25.57;;
3259;SDS011;22469;48.150;14.004;2023-03-01T05:51:07;37.30;;;25.50;;
3259;SDS011;22469;48.150;14.004;2023-03-01T05:53:34;41.57;;;26.27;;
3259;SDS011;22469;48.150;14.004;2023-03-01T05:56:05;38.80;;;25.60;;
3259;SDS011;22469;48.150;14.004;2023-03-01T05:58:32;36.10;;;23.60;;
3259;SDS011;22469;48.150;14.004;2023-03-01T06:00:59;38.10;;;25.00;;
3259;SDS011;22469;48.150;14.004;2023-03-01T06:03:26;45.73;;;28.80;;
3259;SDS011;22469;48.150;14.004;2023-03-01T06:05:56;44.77;;;25.93;;
3259;SDS011;22469;48.150;14.004;2023-03-01T06:08:24;42.97;;;25.60;;
3259;SDS011;22469;48.150;14.004;2023-03-01T06:10:53;41.57;;;27.60;;
3259;SDS011;22469;48.150;14.004;2023-03-01T06:13:21;38.33;;;24.90;;
3259;SDS011;22469;48.150;14.004;2023-03-01T06:15:49;38.10;;;25.37;;
3259;SDS011;22469;48.150;14.004;2023-03-01T06:18:17;42.00;;;26.27;;
3259;SDS011;22469;48.150;14.004;2023-03-01T06:20:44;38.70;;;27.43;;
3259;SDS011;22469;48.150;14.004;2023-03-01T06:23:11;44.50;;;27.60;;
3259;SDS011;22469;48.150;14.004;2023-03-01T06:25:38;47.97;;;27.43;;
3259;SDS011;22469;48.150;14.004;2023-03-01T06:28:05;37.47;;;22.70;;
3259;SDS011;22469;48.150;14.004;2023-03-01T06:30:32;39.20;;;25.10;;
3259;SDS011;22469;48.150;14.004;2023-03-01T06:32:59;35.27;;;23.13;;
3259;SDS011;22469;48.150;14.004;2023-03-01T06:35:29;42.83;;;26.47;;
3259;SDS011;22469;48.150;14.004;2023-03-01T06:37:58;36.70;;;24.70;;
3259;SDS011;22469;48.150;14.004;2023-03-01T06:40:28;42.77;;;25.47;;
3259;SDS011;22469;48.150;14.004;2023-03-01T06:42:57;41.23;;;27.67;;
3259;SDS011;22469;48.150;14.004;2023-03-01T06:45:25;34.60;;;22.87;;
3259;SDS011;22469;48.150;14.004;2023-03-01T06:47:56;46.20;;;25.47;;
3259;SDS011;22469;48.150;14.004;2023-03-01T06:50:30;40.53;;;27.53;;
3259;SDS011;22469;48.150;14.004;2023-03-01T06:52:57;40.00;;;26.87;;
3259;SDS011;22469;48.150;14.004;2023-03-01T06:55:24;36.90;;;22.47;;
3259;SDS011;22469;48.150;14.004;2023-03-01T06:57:55;39.80;;;24.80;;
3259;SDS011;22469;48.150;14.004;2023-03-01T07:00:27;44.93;;;29.27;;
3259;SDS011;22469;48.150;14.004;2023-03-01T07:02:56;48.40;;;28.50;;
3259;SDS011;22469;48.150;14.004;2023-03-01T07:05:26;48.40;;;28.03;;
3259;SDS011;22469;48.150;14.004;2023-03-01T07:07:54;43.30;;;26.70;;
3259;SDS011;22469;48.150;14.004;2023-03-01T07:10:22;41.57;;;27.83;;
3259;SDS011;22469;48.150;14.004;2023-03-01T07:12:54;37.50;;;26.80;;
3259;SDS011;22469;48.150;14.004;2023-03-01T07:15:27;47.90;;;26.30;;
3259;SDS011;22469;48.150;14.004;2023-03-01T07:18:02;38.67;;;25.47;;
3259;SDS011;22469;48.150;14.004;2023-03-01T07:20:29;41.07;;;26.37;;
3259;SDS011;22469;48.150;14.004;2023-03-01T07:22:56;41.70;;;26.73;;
3259;SDS011;22469;48.150;14.004;2023-03-01T07:25:25;39.00;;;25.87;;
3259;SDS011;22469;48.150;14.004;2023-03-01T07:27:52;48.83;;;27.40;;
3259;SDS011;22469;48.150;14.004;2023-03-01T07:30:20;43.33;;;27.33;;
3259;SDS011;22469;48.150;14.004;2023-03-01T07:32:48;48.53;;;29.50;;
3259;SDS011;22469;48.150;14.004;2023-03-01T07:35:16;40.90;;;27.53;;
3259;SDS011;22469;48.150;14.004;2023-03-01T07:37:43;48.20;;;29.07;;
3259;SDS011;22469;48.150;14.004;2023-03-01T07:40:10;45.93;;;30.33;;
3259;SDS011;22469;48.150;14.004;2023-03-01T07:42:38;40.87;;;25.07;;
3259;SDS011;22469;48.150;14.004;2023-03-01T07:45:05;39.03;;;26.73;;
3259;SDS011;22469;48.150;14.004;2023-03-01T07:47:33;38.10;;;26.10;;
3259;SDS011;22469;48.150;14.004;2023-03-01T07:50:01;46.23;;;27.03;;
3259;SDS011;22469;48.150;14.004;2023-03-01T07:52:30;48.37;;;28.93;;
3259;SDS011;22469;48.150;14.004;2023-03-01T07:54:57;44.53;;;27.03;;
3259;SDS011;22469;48.150;14.004;2023-03-01T07:57:24;35.70;;;25.10;;
3259;SDS011;22469;48.150;14.004;2023-03-01T07:59:51;42.13;;;26.10;;
3259;SDS011;22469;48.150;14.004;2023-03-01T08:02:18;38.33;;;27.00;;
3259;SDS011;22469;48.150;14.004;2023-03-01T08:04:45;44.70;;;28.13;;
3259;SDS011;22469;48.150;14.004;2023-03-01T08:07:12;39.20;;;26.63;;
3259;SDS011;22469;48.150;14.004;2023-03-01T08:09:39;42.90;;;26.33;;
3259;SDS011;22469;48.150;14.004;2023-03-01T08:12:07;41.97;;;25.97;;
3259;SDS011;22469;48.150;14.004;2023-03-01T08:14:34;42.13;;;27.40;;
3259;SDS011;22469;48.150;14.004;2023-03-01T08:17:01;38.10;;;23.50;;
3259;SDS011;22469;48.150;14.004;2023-03-01T08:19:29;44.40;;;29.47;;
3259;SDS011;22469;48.150;14.004;2023-03-01T08:21:57;40.00;;;24.43;;
3259;SDS011;22469;48.150;14.004;2023-03-01T08:24:25;44.03;;;24.40;;
3259;SDS011;22469;48.150;14.004;2023-03-01T08:26:52;42.00;;;28.67;;
3259;SDS011;22469;48.150;14.004;2023-03-01T08:29:19;36.73;;;27.47;;
3259;SDS011;22469;48.150;14.004;2023-03-01T08:31:46;38.93;;;25.47;;
3259;SDS011;22469;48.150;14.004;2023-03-01T08:34:15;40.27;;;25.67;;
3259;SDS011;22469;48.150;14.004;2023-03-01T08:36:45;34.97;;;24.20;;
3259;SDS011;22469;48.150;14.004;2023-03-01T08:39:14;36.83;;;22.80;;
3259;SDS011;22469;48.150;14.004;2023-03-01T08:41:43;38.93;;;21.57;;
3259;SDS011;22469;48.150;14.004;2023-03-01T08:44:13;39.77;;;26.17;;
3259;SDS011;22469;48.150;14.004;2023-03-01T08:46:43;40.07;;;26.20;;
3259;SDS011;22469;48.150;14.004;2023-03-01T08:49:14;34.80;;;24.03;;
3259;SDS011;22469;48.150;14.004;2023-03-01T08:51:46;46.27;;;26.03;;
3259;SDS011;22469;48.150;14.004;2023-03-01T08:54:15;38.70;;;27.63;;
3259;SDS011;22469;48.150;14.004;2023-03-01T08:56:46;35.07;;;25.57;;
3259;SDS011;22469;48.150;14.004;2023-03-01T08:59:15;38.70;;;24.33;;
3259;SDS011;22469;48.150;14.004;2023-03-01T09:01:43;35.27;;;24.50;;
3259;SDS011;22469;48.150;14.004;2023-03-01T09:04:11;32.40;;;20.87;;
3259;SDS011;22469;48.150;14.004;2023-03-01T09:06:39;35.97;;;21.87;;
3259;SDS011;22469;48.150;14.004;2023-03-01T09:09:10;32.20;;;24.00;;
3259;SDS011;22469;48.150;14.004;2023-03-01T09:11:44;34.63;;;24.30;;
3259;SDS011;22469;48.150;14.004;2023-03-01T09:14:13;35.33;;;23.63;;
3259;SDS011;22469;48.150;14.004;2023-03-01T09:16:40;33.67;;;24.57;;
3259;SDS011;22469;48.150;14.004;2023-03-01T09:19:08;30.63;;;23.70;;
3259;SDS011;22469;48.150;14.004;2023-03-01T09:21:36;36.93;;;24.27;;
3259;SDS011;22469;48.150;14.004;2023-03-01T09:24:08;27.93;;;22.00;;
3259;SDS011;22469;48.150;14.004;2023-03-01T09:26:40;25.97;;;20.80;;
3259;SDS011;22469;48.150;14.004;2023-03-01T09:29:08;33.60;;;23.03;;
3259;SDS011;22469;48.150;14.004;2023-03-01T09:31:36;31.20;;;21.93;;
3259;SDS011;22469;48.150;14.004;2023-03-01T09:34:03;28.83;;;19.13;;
3259;SDS011;22469;48.150;14.004;2023-03-01T09:36:32;24.70;;;17.13;;
3259;SDS011;22469;48.150;14.004;2023-03-01T09:39:00;26.93;;;20.00;;
3259;SDS011;22469;48.150;14.004;2023-03-01T09:46:58;30.30;;;22.10;;
3259;SDS011;22469;48.150;14.004;2023-03-01T09:49:45;26.57;;;21.20;;
3259;SDS011;22469;48.150;14.004;2023-03-01T09:52:42;29.83;;;18.73;;
3259;SDS011;22469;48.150;14.004;2023-03-01T10:01:03;28.23;;;18.67;;
3259;SDS011;22469;48.150;14.004;2023-03-01T10:09:36;29.90;;;19.10;;
3259;SDS011;22469;48.150;14.004;2023-03-01T10:12:10;29.57;;;21.20;;
3259;SDS011;22469;48.150;14.004;2023-03-01T10:15:34;29.70;;;19.83;;
3259;SDS011;22469;48.150;14.004;2023-03-01T10:21:12;27.10;;;21.17;;
3259;SDS011;22469;48.150;14.004;2023-03-01T10:23:20;20.43;;;14.60;;
3259;SDS011;22469;48.150;14.004;2023-03-01T10:31:20;23.10;;;17.90;;
3259;SDS011;22469;48.150;14.004;2023-03-01T10:33:55;23.80;;;17.60;;
3259;SDS011;22469;48.150;14.004;2023-03-01T10:36:23;24.37;;;18.80;;
3259;SDS011;22469;48.150;14.004;2023-03-01T10:38:54;22.17;;;16.87;;
3259;SDS011;22469;48.150;14.004;2023-03-01T10:41:25;21.50;;;17.90;;
3259;SDS011;22469;48.150;14.004;2023-03-01T10:43:55;28.47;;;19.83;;
3259;SDS011;22469;48.150;14.004;2023-03-01T10:46:30;28.13;;;19.53;;
3259;SDS011;22469;48.150;14.004;2023-03-01T10:49:07;24.00;;;19.40;;
3259;SDS011;22469;48.150;14.004;2023-03-01T10:51:48;23.97;;;15.77;;
3259;SDS011;22469;48.150;14.004;2023-03-01T10:56:58;23.13;;;17.80;;
3259;SDS011;22469;48.150;14.004;2023-03-01T10:59:29;23.70;;;17.10;;
3259;SDS011;22469;48.150;14.004;2023-03-01T11:07:53;26.70;;;18.63;;
3259;SDS011;22469;48.150;14.004;2023-03-01T11:10:24;25.93;;;18.17;;
3259;SDS011;22469;48.150;14.004;2023-03-01T11:13:05;19.47;;;17.37;;
3259;SDS011;22469;48.150;14.004;2023-03-01T11:15:41;23.87;;;16.50;;
3259;SDS011;22469;48.150;14.004;2023-03-01T11:18:42;25.27;;;18.20;;
3259;SDS011;22469;48.150;14.004;2023-03-01T11:21:14;22.77;;;16.07;;
3259;SDS011;22469;48.150;14.004;2023-03-01T11:23:42;22.97;;;18.80;;
3259;SDS011;22469;48.150;14.004;2023-03-01T11:26:13;21.73;;;16.07;;
3259;SDS011;22469;48.150;14.004;2023-03-01T11:28:42;25.10;;;17.50;;
3259;SDS011;22469;48.150;14.004;2023-03-01T11:31:17;24.13;;;17.30;;
3259;SDS011;22469;48.150;14.004;2023-03-01T11:36:49;24.40;;;18.50;;
3259;SDS011;22469;48.150;14.004;2023-03-01T11:42:43;20.83;;;16.13;;
3259;SDS011;22469;48.150;14.004;2023-03-01T11:45:10;18.50;;;13.50;;
3259;SDS011;22469;48.150;14.004;2023-03-01T11:56:25;23.00;;;18.13;;
3259;SDS011;22469;48.150;14.004;2023-03-01T12:05:00;21.60;;;14.77;;
3259;SDS011;22469;48.150;14.004;2023-03-01T12:20:27;21.50;;;14.57;;
3259;SDS011;22469;48.150;14.004;2023-03-01T12:31:59;23.60;;;17.27;;
3259;SDS011;22469;48.150;14.004;2023-03-01T12:37:33;22.10;;;16.43;;
3259;SDS011;22469;48.150;14.004;2023-03-01T12:49:20;20.40;;;16.40;;
3259;SDS011;22469;48.150;14.004;2023-03-01T12:51:59;23.13;;;17.00;;
3259;SDS011;22469;48.150;14.004;2023-03-01T12:54:41;22.83;;;16.50;;
3259;SDS011;22469;48.150;14.004;2023-03-01T12:57:21;21.13;;;15.53;;
3259;SDS011;22469;48.150;14.004;2023-03-01T13:02:45;22.33;;;16.03;;
3259;SDS011;22469;48.150;14.004;2023-03-01T13:11:21;19.50;;;14.37;;
3259;SDS011;22469;48.150;14.004;2023-03-01T13:13:50;23.40;;;17.13;;
3259;SDS011;22469;48.150;14.004;2023-03-01T13:19:13;22.87;;;17.13;;
3259;SDS011;22469;48.150;14.004;2023-03-01T13:21:46;19.50;;;12.87;;
3259;SDS011;22469;48.150;14.004;2023-03-01T13:32:24;17.20;;;14.07;;
3259;SDS011;22469;48.150;14.004;2023-03-01T13:37:45;21.50;;;15.67;;
3259;SDS011;22469;48.150;14.004;2023-03-01T13:42:45;20.07;;;16.47;;
3259;SDS011;22469;48.150;14.004;2023-03-01T13:45:36;21.97;;;15.23;;
3259;SDS011;22469;48.150;14.004;2023-03-01T13:48:15;16.97;;;14.10;;
3259;SDS011;22469;48.150;14.004;2023-03-01T13:50:51;21.27;;;16.13;;
3259;SDS011;22469;48.150;14.004;2023-03-01T13:53:35;20.40;;;16.60;;
3259;SDS011;22469;48.150;14.004;2023-03-01T13:56:17;26.17;;;16.13;;
3259;SDS011;22469;48.150;14.004;2023-03-01T13:59:16;22.20;;;16.63;;
3259;SDS011;22469;48.150;14.004;2023-03-01T14:01:53;22.17;;;16.57;;
3259;SDS011;22469;48.150;14.004;2023-03-01T14:04:28;21.30;;;18.13;;
3259;SDS011;22469;48.150;14.004;2023-03-01T14:07:20;23.97;;;14.97;;
3259;SDS011;22469;48.150;14.004;2023-03-01T14:09:58;25.33;;;16.87;;
3259;SDS011;22469;48.150;14.004;2023-03-01T14:19:19;25.60;;;17.23;;
3259;SDS011;22469;48.150;14.004;2023-03-01T14:24:50;23.43;;;17.70;;
3259;SDS011;22469;48.150;14.004;2023-03-01T14:27:38;22.53;;;16.73;;
3259;SDS011;22469;48.150;14.004;2023-03-01T14:30:19;24.03;;;18.63;;
3259;SDS011;22469;48.150;14.004;2023-03-01T14:32:59;17.70;;;13.97;;
3259;SDS011;22469;48.150;14.004;2023-03-01T14:35:30;21.50;;;16.47;;
3259;SDS011;22469;48.150;14.004;2023-03-01T14:38:01;20.57;;;14.90;;
3259;SDS011;22469;48.150;14.004;2023-03-01T14:40:33;20.63;;;14.80;;
3259;SDS011;22469;48.150;14.004;2023-03-01T14:43:08;21.93;;;15.80;;
3259;SDS011;22469;48.150;14.004;2023-03-01T14:45:38;24.10;;;19.33;;
3259;SDS011;22469;48.150;14.004;2023-03-01T14:48:06;18.80;;;14.63;;
3259;SDS011;22469;48.150;14.004;2023-03-01T14:50:34;23.87;;;17.13;;
3259;SDS011;22469;48.150;14.004;2023-03-01T14:53:12;19.47;;;15.90;;
3259;SDS011;22469;48.150;14.004;2023-03-01T14:55:53;19.77;;;14.43;;
3259;SDS011;22469;48.150;14.004;2023-03-01T14:58:23;21.20;;;16.00;;
3259;SDS011;22469;48.150;14.004;2023-03-01T15:00:53;25.33;;;17.27;;
3259;SDS011;22469;48.150;14.004;2023-03-01T15:06:03;25.73;;;17.87;;
3259;SDS011;22469;48.150;14.004;2023-03-01T15:08:33;25.93;;;17.00;;
3259;SDS011;22469;48.150;14.004;2023-03-01T15:11:04;19.00;;;16.07;;
3259;SDS011;22469;48.150;14.004;2023-03-01T15:13:40;25.20;;;17.80;;
3259;SDS011;22469;48.150;14.004;2023-03-01T15:16:09;24.00;;;17.13;;
3259;SDS011;22469;48.150;14.004;2023-03-01T15:18:44;26.37;;;16.00;;
3259;SDS011;22469;48.150;14.004;2023-03-01T15:21:24;21.93;;;17.87;;
3259;SDS011;22469;48.150;14.004;2023-03-01T15:27:20;25.80;;;16.23;;
3259;SDS011;22469;48.150;14.004;2023-03-01T15:29:50;22.70;;;15.50;;
3259;SDS011;22469;48.150;14.004;2023-03-01T15:32:32;24.70;;;15.60;;
3259;SDS011;22469;48.150;14.004;2023-03-01T15:38:23;21.63;;;16.00;;
3259;SDS011;22469;48.150;14.004;2023-03-01T15:41:22;19.37;;;15.20;;
3259;SDS011;22469;48.150;14.004;2023-03-01T15:43:52;18.27;;;13.00;;
3259;SDS011;22469;48.150;14.004;2023-03-01T15:46:24;17.83;;;14.33;;
3259;SDS011;22469;48.150;14.004;2023-03-01T15:49:00;25.10;;;15.77;;
3259;SDS011;22469;48.150;14.004;2023-03-01T15:54:04;18.40;;;14.80;;
3259;SDS011;22469;48.150;14.004;2023-03-01T15:56:41;21.87;;;14.90;;
3259;SDS011;22469;48.150;14.004;2023-03-01T15:59:08;21.43;;;16.00;;
3259;SDS011;22469;48.150;14.004;2023-03-01T16:01:41;19.40;;;16.00;;
3259;SDS011;22469;48.150;14.004;2023-03-01T16:04:13;23.10;;;16.17;;
3259;SDS011;22469;48.150;14.004;2023-03-01T16:06:52;17.60;;;14.50;;
3259;SDS011;22469;48.150;14.004;2023-03-01T16:09:21;17.37;;;13.00;;
3259;SDS011;22469;48.150;14.004;2023-03-01T16:11:50;20.00;;;14.90;;
3259;SDS011;22469;48.150;14.004;2023-03-01T16:14:20;19.53;;;15.07;;
3259;SDS011;22469;48.150;14.004;2023-03-01T16:16:47;20.47;;;16.00;;
3259;SDS011;22469;48.150;14.004;2023-03-01T16:19:15;18.30;;;15.33;;
3259;SDS011;22469;48.150;14.004;2023-03-01T16:21:43;19.13;;;14.47;;
3259;SDS011;22469;48.150;14.004;2023-03-01T16:24:13;21.07;;;14.37;;
3259;SDS011;22469;48.150;14.004;2023-03-01T16:26:41;19.50;;;14.70;;
3259;SDS011;22469;48.150;14.004;2023-03-01T16:29:08;17.70;;;13.40;;
3259;SDS011;22469;48.150;14.004;2023-03-01T16:31:35;17.83;;;13.43;;
3259;SDS011;22469;48.150;14.004;2023-03-01T16:34:03;19.53;;;13.53;;
3259;SDS011;22469;48.150;14.004;2023-03-01T16:36:30;20.23;;;14.30;;
3259;SDS011;22469;48.150;14.004;2023-03-01T16:38:57;19.97;;;14.03;;
3259;SDS011;22469;48.150;14.004;2023-03-01T16:41:27;18.60;;;12.50;;
3259;SDS011;22469;48.150;14.004;2023-03-01T16:43:55;20.53;;;16.63;;
3259;SDS011;22469;48.150;14.004;2023-03-01T16:46:23;19.47;;;14.67;;
3259;SDS011;22469;48.150;14.004;2023-03-01T16:48:55;19.50;;;14.90;;
3259;SDS011;22469;48.150;14.004;2023-03-01T16:51:23;19.50;;;16.50;;
3259;SDS011;22469;48.150;14.004;2023-03-01T16:53:51;23.30;;;17.50;;
3259;SDS011;22469;48.150;14.004;2023-03-01T16:56:19;19.47;;;15.30;;
3259;SDS011;22469;48.150;14.004;2023-03-01T16:58:46;21.57;;;15.20;;
3259;SDS011;22469;48.150;14.004;2023-03-01T17:01:14;21.17;;;15.90;;
3259;SDS011;22469;48.150;14.004;2023-03-01T17:03:46;25.00;;;16.10;;
3259;SDS011;22469;48.150;14.004;2023-03-01T17:06:16;22.40;;;16.63;;
3259;SDS011;22469;48.150;14.004;2023-03-01T17:08:46;23.87;;;15.70;;
3259;SDS011;22469;48.150;14.004;2023-03-01T17:11:15;23.50;;;17.20;;
3259;SDS011;22469;48.150;14.004;2023-03-01T17:13:45;20.43;;;14.70;;
3259;SDS011;22469;48.150;14.004;2023-03-01T17:16:14;27.30;;;16.23;;